Terminal Aerodrome Forecast
Issued by NWS Mt. Holly, NJ

Home | Current Version | Previous Version | Text Only | Print | Product List | Glossary On
Versions: 1 2 3 4 5 6 7 8 9 10 11 12 13 14 15 16 17 18 19 20 21 22 23 24 25 26
000
FTUS41 KPHI 212056 AAA
TAFACY
TAF AMD
KACY 212056Z 2121/2218 23004KT 5SM BR OVC003
     FM220000 VRB03KT 2SM BR OVC003
     FM220400 00000KT 1/2SM -DZ FG OVC002
     FM220800 08003KT 1/2SM -RA FG OVC002
     FM221500 09006KT 2SM BR OVC005=

USA.gov is the U.S. government's official web portal to all federal, state and local government web resources and services.